sensor_id;sensor_type;location;lat;lon;timestamp;pressure;altitude;pressure_sealevel;temperature;humidity
60583;BME280;46415;47.536;19.066;2023-05-29T00:01:31;-18617.91;;;14.32;81.35
60583;BME280;46415;47.536;19.066;2023-05-29T00:04:34;-18620.09;;;14.40;80.68
60583;BME280;46415;47.536;19.066;2023-05-29T00:07:39;-18619.81;;;14.39;80.01
60583;BME280;46415;47.536;19.066;2023-05-29T00:10:42;-18615.72;;;14.24;82.05
60583;BME280;46415;47.536;19.066;2023-05-29T00:13:44;-18614.22;;;14.18;83.67
60583;BME280;46415;47.536;19.066;2023-05-29T00:16:48;-18614.75;;;14.20;86.84
60583;BME280;46415;47.536;19.066;2023-05-29T00:19:51;-18618.56;;;14.35;86.42
60583;BME280;46415;47.536;19.066;2023-05-29T00:22:54;-18617.63;;;14.31;86.84
60583;BME280;46415;47.536;19.066;2023-05-29T00:25:57;-18618.16;;;14.33;87.13
60583;BME280;46415;47.536;19.066;2023-05-29T00:29:00;-18621.03;;;14.44;86.19
60583;BME280;46415;47.536;19.066;2023-05-29T00:32:04;-18623.63;;;14.53;87.13
60583;BME280;46415;47.536;19.066;2023-05-29T00:35:08;-18622.25;;;14.48;87.57
60583;BME280;46415;47.536;19.066;2023-05-29T00:38:11;-18617.91;;;14.32;88.00
60583;BME280;46415;47.536;19.066;2023-05-29T00:41:14;-18614.22;;;14.18;88.62
60583;BME280;46415;47.536;19.066;2023-05-29T00:44:18;-18613.12;;;14.14;89.15
60583;BME280;46415;47.536;19.066;2023-05-29T00:47:22;-18611.75;;;14.09;87.10
60583;BME280;46415;47.536;19.066;2023-05-29T00:50:24;-18611.06;;;14.07;86.02
60583;BME280;46415;47.536;19.066;2023-05-29T00:53:28;-18610.66;;;14.05;85.88
60583;BME280;46415;47.536;19.066;2023-05-29T00:56:31;-18606.69;;;13.90;86.79
60583;BME280;46415;47.536;19.066;2023-05-29T00:59:34;-18602.19;;;13.74;87.76
60583;BME280;46415;47.536;19.066;2023-05-29T01:02:37;-18601.91;;;13.73;88.71
60583;BME280;46415;47.536;19.066;2023-05-29T01:05:42;-18601.25;;;13.70;89.99
60583;BME280;46415;47.536;19.066;2023-05-29T01:08:45;-18601.66;;;13.72;90.27
60583;BME280;46415;47.536;19.066;2023-05-29T01:12:19;-18601.78;;;13.72;90.20
60583;BME280;46415;47.536;19.066;2023-05-29T01:18:41;-18598.66;;;13.61;91.22
60583;BME280;46415;47.536;19.066;2023-05-29T01:22:17;-18598.91;;;13.62;91.45
60583;BME280;46415;47.536;19.066;2023-05-29T01:26:00;-18599.34;;;13.63;92.52
60583;BME280;46415;47.536;19.066;2023-05-29T01:29:14;-18598.50;;;13.60;92.15
60583;BME280;46415;47.536;19.066;2023-05-29T01:32:18;-18598.38;;;13.60;90.61
60583;BME280;46415;47.536;19.066;2023-05-29T01:35:21;-18598.91;;;13.62;91.44
60583;BME280;46415;47.536;19.066;2023-05-29T01:38:24;-18601.38;;;13.71;89.82
60583;BME280;46415;47.536;19.066;2023-05-29T01:41:28;-18600.84;;;13.69;88.87
60583;BME280;46415;47.536;19.066;2023-05-29T01:44:31;-18601.50;;;13.71;87.35
60583;BME280;46415;47.536;19.066;2023-05-29T01:47:35;-18601.91;;;13.73;87.67
60583;BME280;46415;47.536;19.066;2023-05-29T01:50:39;-18601.25;;;13.70;88.08
60583;BME280;46415;47.536;19.066;2023-05-29T01:53:43;-18599.47;;;13.64;88.78
60583;BME280;46415;47.536;19.066;2023-05-29T01:56:47;-18597.81;;;13.58;90.22
60583;BME280;46415;47.536;19.066;2023-05-29T01:59:50;-18595.62;;;13.49;91.24
60583;BME280;46415;47.536;19.066;2023-05-29T02:02:53;-18594.13;;;13.44;91.96
60583;BME280;46415;47.536;19.066;2023-05-29T02:05:57;-18594.28;;;13.44;92.51
60583;BME280;46415;47.536;19.066;2023-05-29T02:09:00;-18593.72;;;13.42;94.11
60583;BME280;46415;47.536;19.066;2023-05-29T02:12:03;-18592.22;;;13.37;95.28
60583;BME280;46415;47.536;19.066;2023-05-29T02:15:08;-18591.28;;;13.33;96.13
60583;BME280;46415;47.536;19.066;2023-05-29T02:18:15;-18592.09;;;13.36;97.54
60583;BME280;46415;47.536;19.066;2023-05-29T02:21:19;-18591.41;;;13.34;98.87
60583;BME280;46415;47.536;19.066;2023-05-29T02:24:22;-18589.63;;;13.27;99.57
60583;BME280;46415;47.536;19.066;2023-05-29T02:27:25;-18589.34;;;13.26;100.00
60583;BME280;46415;47.536;19.066;2023-05-29T02:30:28;-18590.19;;;13.29;100.00
60583;BME280;46415;47.536;19.066;2023-05-29T02:33:31;-18589.34;;;13.26;99.69
60583;BME280;46415;47.536;19.066;2023-05-29T02:36:34;-18587.16;;;13.18;100.00
60583;BME280;46415;47.536;19.066;2023-05-29T02:39:39;-18587.84;;;13.21;100.00
60583;BME280;46415;47.536;19.066;2023-05-29T02:42:43;-18589.63;;;13.27;98.70
60583;BME280;46415;47.536;19.066;2023-05-29T02:45:45;-18588.81;;;13.24;98.74
60583;BME280;46415;47.536;19.066;2023-05-29T02:48:50;-18588.81;;;13.24;99.05
60583;BME280;46415;47.536;19.066;2023-05-29T02:51:53;-18587.03;;;13.18;100.00
60583;BME280;46415;47.536;19.066;2023-05-29T02:54:59;-18586.63;;;13.16;99.65
60583;BME280;46415;47.536;19.066;2023-05-29T02:58:03;-18585.81;;;13.13;98.92
60583;BME280;46415;47.536;19.066;2023-05-29T03:01:06;-18585.53;;;13.12;95.67
60583;BME280;46415;47.536;19.066;2023-05-29T03:04:10;-18585.53;;;13.12;93.58
60583;BME280;46415;47.536;19.066;2023-05-29T03:07:12;-18586.06;;;13.14;93.73
60583;BME280;46415;47.536;19.066;2023-05-29T03:10:16;-18586.22;;;13.15;93.88
60583;BME280;46415;47.536;19.066;2023-05-29T03:13:19;-18586.63;;;13.16;93.79
60583;BME280;46415;47.536;19.066;2023-05-29T03:16:24;-18585.25;;;13.11;93.97
60583;BME280;46415;47.536;19.066;2023-05-29T03:19:27;-18587.03;;;13.18;94.87
60583;BME280;46415;47.536;19.066;2023-05-29T03:22:30;-18588.25;;;13.22;94.85
60583;BME280;46415;47.536;19.066;2023-05-29T03:25:33;-18588.53;;;13.23;95.29
60583;BME280;46415;47.536;19.066;2023-05-29T03:28:35;-18588.94;;;13.25;95.70
60583;BME280;46415;47.536;19.066;2023-05-29T03:31:39;-18590.03;;;13.29;96.04
60583;BME280;46415;47.536;19.066;2023-05-29T03:34:42;-18592.78;;;13.39;95.41
60583;BME280;46415;47.536;19.066;2023-05-29T03:37:45;-18594.13;;;13.44;94.93
60583;BME280;46415;47.536;19.066;2023-05-29T03:40:47;-18595.38;;;13.48;95.89
60583;BME280;46415;47.536;19.066;2023-05-29T03:43:53;-18598.09;;;13.59;95.39
60583;BME280;46415;47.536;19.066;2023-05-29T03:46:56;-18599.19;;;13.63;95.69
60583;BME280;46415;47.536;19.066;2023-05-29T03:49:59;-18600.97;;;13.69;96.67
60583;BME280;46415;47.536;19.066;2023-05-29T03:53:02;-18602.88;;;13.76;97.92
60583;BME280;46415;47.536;19.066;2023-05-29T03:56:05;-18604.94;;;13.84;98.57
60583;BME280;46415;47.536;19.066;2023-05-29T03:59:08;-18607.37;;;13.93;98.86
60583;BME280;46415;47.536;19.066;2023-05-29T04:02:11;-18608.75;;;13.98;99.49
60583;BME280;46415;47.536;19.066;2023-05-29T04:05:16;-18611.75;;;14.09;99.18
60583;BME280;46415;47.536;19.066;2023-05-29T04:08:19;-18614.91;;;14.21;98.56
60583;BME280;46415;47.536;19.066;2023-05-29T04:11:22;-18619.13;;;14.37;97.94
60583;BME280;46415;47.536;19.066;2023-05-29T04:14:25;-18621.59;;;14.46;98.52
60583;BME280;46415;47.536;19.066;2023-05-29T04:17:28;-18623.22;;;14.52;97.31
60583;BME280;46415;47.536;19.066;2023-05-29T04:20:30;-18628.00;;;14.69;97.43
60583;BME280;46415;47.536;19.066;2023-05-29T04:23:33;-18630.59;;;14.79;94.75
60583;BME280;46415;47.536;19.066;2023-05-29T04:26:37;-18630.31;;;14.78;94.84
60583;BME280;46415;47.536;19.066;2023-05-29T04:29:43;-18632.22;;;14.85;94.97
60583;BME280;46415;47.536;19.066;2023-05-29T04:32:47;-18635.38;;;14.97;94.79
60583;BME280;46415;47.536;19.066;2023-05-29T04:35:51;-18639.59;;;15.13;93.97
60583;BME280;46415;47.536;19.066;2023-05-29T04:38:58;-18640.41;;;15.16;94.35
60583;BME280;46415;47.536;19.066;2023-05-29T04:42:01;-18641.91;;;15.21;94.82
60583;BME280;46415;47.536;19.066;2023-05-29T04:45:05;-18646.69;;;15.39;91.79
60583;BME280;46415;47.536;19.066;2023-05-29T04:48:09;-18649.12;;;15.48;90.69
60583;BME280;46415;47.536;19.066;2023-05-29T04:51:12;-18653.78;;;15.65;89.85
60583;BME280;46415;47.536;19.066;2023-05-29T04:54:16;-18654.88;;;15.69;89.87
60583;BME280;46415;47.536;19.066;2023-05-29T04:57:19;-18660.06;;;15.88;89.80
60583;BME280;46415;47.536;19.066;2023-05-29T05:00:23;-18665.50;;;16.09;87.36
60583;BME280;46415;47.536;19.066;2023-05-29T05:03:26;-18666.59;;;16.13;88.10
60583;BME280;46415;47.536;19.066;2023-05-29T05:06:29;-18669.19;;;16.22;87.89
60583;BME280;46415;47.536;19.066;2023-05-29T05:09:33;-18670.41;;;16.27;87.00
60583;BME280;46415;47.536;19.066;2023-05-29T05:12:37;-18674.91;;;16.44;85.44
60583;BME280;46415;47.536;19.066;2023-05-29T05:15:40;-18680.22;;;16.63;84.53
60583;BME280;46415;47.536;19.066;2023-05-29T05:18:44;-18681.31;;;16.67;82.99
60583;BME280;46415;47.536;19.066;2023-05-29T05:21:46;-18684.44;;;16.79;81.82
60583;BME280;46415;47.536;19.066;2023-05-29T05:24:50;-18686.75;;;16.88;82.05
60583;BME280;46415;47.536;19.066;2023-05-29T05:27:54;-18690.84;;;17.03;82.20
60583;BME280;46415;47.536;19.066;2023-05-29T05:30:57;-18695.34;;;17.20;80.80
60583;BME280;46415;47.536;19.066;2023-05-29T05:34:00;-18697.78;;;17.29;80.16
60583;BME280;46415;47.536;19.066;2023-05-29T05:37:03;-18700.38;;;17.38;80.13
60583;BME280;46415;47.536;19.066;2023-05-29T05:40:07;-18705.13;;;17.56;80.47
60583;BME280;46415;47.536;19.066;2023-05-29T05:43:13;-18707.72;;;17.66;78.58
60583;BME280;46415;47.536;19.066;2023-05-29T05:46:17;-18710.44;;;17.76;77.27
60583;BME280;46415;47.536;19.066;2023-05-29T05:49:20;-18715.63;;;17.95;76.61
60583;BME280;46415;47.536;19.066;2023-05-29T05:52:24;-18719.97;;;18.11;75.02
60583;BME280;46415;47.536;19.066;2023-05-29T05:55:27;-18722.69;;;18.21;75.98
60583;BME280;46415;47.536;19.066;2023-05-29T05:58:30;-18725.13;;;18.30;74.77
60583;BME280;46415;47.536;19.066;2023-05-29T06:01:36;-18726.91;;;18.37;75.73
60583;BME280;46415;47.536;19.066;2023-05-29T06:04:40;-18731.25;;;18.53;73.99
60583;BME280;46415;47.536;19.066;2023-05-29T06:07:44;-18736.00;;;18.71;73.16
60583;BME280;46415;47.536;19.066;2023-05-29T06:10:47;-18741.19;;;18.90;71.31
60583;BME280;46415;47.536;19.066;2023-05-29T06:13:51;-18745.00;;;19.04;69.46
60583;BME280;46415;47.536;19.066;2023-05-29T06:16:55;-18747.28;;;19.13;69.50
60583;BME280;46415;47.536;19.066;2023-05-29T06:20:00;-18748.78;;;19.18;68.52
60583;BME280;46415;47.536;19.066;2023-05-29T06:23:03;-18750.41;;;19.25;68.70
60583;BME280;46415;47.536;19.066;2023-05-29T06:26:06;-18758.03;;;19.53;67.33
60583;BME280;46415;47.536;19.066;2023-05-29T06:29:10;-18765.50;;;19.81;65.40
60583;BME280;46415;47.536;19.066;2023-05-29T06:32:13;-18767.53;;;19.88;65.59
60583;BME280;46415;47.536;19.066;2023-05-29T06:35:17;-18774.31;;;20.14;65.90
60583;BME280;46415;47.536;19.066;2023-05-29T06:38:19;-18778.41;;;20.29;62.00
60583;BME280;46415;47.536;19.066;2023-05-29T06:41:22;-18779.75;;;20.34;58.83
60583;BME280;46415;47.536;19.066;2023-05-29T06:44:25;-18780.84;;;20.38;58.34
60583;BME280;46415;47.536;19.066;2023-05-29T06:47:29;-18786.28;;;20.58;57.77
60583;BME280;46415;47.536;19.066;2023-05-29T06:50:32;-18794.97;;;20.91;58.18
60583;BME280;46415;47.536;19.066;2023-05-29T06:53:38;-18797.66;;;21.01;59.08
60583;BME280;46415;47.536;19.066;2023-05-29T06:56:41;-18801.75;;;21.16;59.35
60583;BME280;46415;47.536;19.066;2023-05-29T06:59:44;-18803.09;;;21.21;58.47
60583;BME280;46415;47.536;19.066;2023-05-29T07:02:47;-18809.19;;;21.44;57.86
60583;BME280;46415;47.536;19.066;2023-05-29T07:05:50;-18808.66;;;21.42;55.80
60583;BME280;46415;47.536;19.066;2023-05-29T07:08:54;-18813.25;;;21.59;56.21
60583;BME280;46415;47.536;19.066;2023-05-29T07:11:58;-18813.25;;;21.59;56.74
60583;BME280;46415;47.536;19.066;2023-05-29T07:15:01;-18820.44;;;21.86;57.06
60583;BME280;46415;47.536;19.066;2023-05-29T07:18:04;-18821.13;;;21.88;55.54
60583;BME280;46415;47.536;19.066;2023-05-29T07:21:07;-18819.91;;;21.84;53.35
60583;BME280;46415;47.536;19.066;2023-05-29T07:24:10;-18812.59;;;21.56;54.76
60583;BME280;46415;47.536;19.066;2023-05-29T07:27:13;-18819.78;;;21.83;54.48
60583;BME280;46415;47.536;19.066;2023-05-29T07:30:16;-18825.19;;;22.04;54.54
60583;BME280;46415;47.536;19.066;2023-05-29T07:33:19;-18829.41;;;22.19;55.45
60583;BME280;46415;47.536;19.066;2023-05-29T07:36:22;-18830.22;;;22.22;53.92
60583;BME280;46415;47.536;19.066;2023-05-29T07:39:26;-18831.97;;;22.29;53.57
60583;BME280;46415;47.536;19.066;2023-05-29T07:42:29;-18837.53;;;22.50;52.50
60583;BME280;46415;47.536;19.066;2023-05-29T07:45:32;-18845.09;;;22.78;52.28
60583;BME280;46415;47.536;19.066;2023-05-29T07:48:35;-18848.78;;;22.92;52.02
60583;BME280;46415;47.536;19.066;2023-05-29T07:51:37;-18856.06;;;23.19;52.28
60583;BME280;46415;47.536;19.066;2023-05-29T07:54:41;-18857.84;;;23.26;52.54
60583;BME280;46415;47.536;19.066;2023-05-29T07:57:48;-18861.22;;;23.38;51.86
60583;BME280;46415;47.536;19.066;2023-05-29T08:00:51;-18864.34;;;23.50;52.14
60583;BME280;46415;47.536;19.066;2023-05-29T08:03:55;-18871.50;;;23.77;51.15
60583;BME280;46415;47.536;19.066;2023-05-29T08:07:02;-18878.41;;;24.02;50.49
60583;BME280;46415;47.536;19.066;2023-05-29T08:10:08;-18890.31;;;24.47;48.56
60583;BME280;46415;47.536;19.066;2023-05-29T08:13:11;-18902.19;;;24.92;47.59
60583;BME280;46415;47.536;19.066;2023-05-29T08:16:14;-18911.66;;;25.27;46.42
60583;BME280;46415;47.536;19.066;2023-05-29T08:19:18;-18901.25;;;24.88;46.13
60583;BME280;46415;47.536;19.066;2023-05-29T08:22:27;-18896.50;;;24.70;46.48
60583;BME280;46415;47.536;19.066;2023-05-29T08:25:30;-18882.59;;;24.18;47.69
60583;BME280;46415;47.536;19.066;2023-05-29T08:28:33;-18890.72;;;24.49;47.93
60583;BME280;46415;47.536;19.066;2023-05-29T08:31:36;-18878.94;;;24.05;48.43
60583;BME280;46415;47.536;19.066;2023-05-29T08:34:40;-18883.41;;;24.21;48.11
60583;BME280;46415;47.536;19.066;2023-05-29T08:37:44;-18885.72;;;24.30;49.01
60583;BME280;46415;47.536;19.066;2023-05-29T08:40:47;-18885.97;;;24.31;48.34
60583;BME280;46415;47.536;19.066;2023-05-29T08:43:52;-18887.06;;;24.35;48.58
60583;BME280;46415;47.536;19.066;2023-05-29T08:46:56;-18891.38;;;24.51;46.99
60583;BME280;46415;47.536;19.066;2023-05-29T08:50:00;-18893.81;;;24.60;47.80
60583;BME280;46415;47.536;19.066;2023-05-29T08:53:03;-18896.78;;;24.71;47.23
60583;BME280;46415;47.536;19.066;2023-05-29T08:56:09;-18900.56;;;24.86;46.48
60583;BME280;46415;47.536;19.066;2023-05-29T08:59:22;-18895.84;;;24.68;47.05
60583;BME280;46415;47.536;19.066;2023-05-29T09:02:25;-18892.47;;;24.55;48.05
60583;BME280;46415;47.536;19.066;2023-05-29T09:05:28;-18896.50;;;24.70;46.92
60583;BME280;46415;47.536;19.066;2023-05-29T09:08:32;-18901.66;;;24.90;46.66
60583;BME280;46415;47.536;19.066;2023-05-29T09:11:35;-18899.75;;;24.83;46.07
60583;BME280;46415;47.536;19.066;2023-05-29T09:14:40;-18908.00;;;25.13;45.48
60583;BME280;46415;47.536;19.066;2023-05-29T09:17:53;-18914.34;;;25.37;45.47
60583;BME280;46415;47.536;19.066;2023-05-29T09:20:57;-18925.28;;;25.78;44.88
60583;BME280;46415;47.536;19.066;2023-05-29T09:24:04;-18935.00;;;26.15;45.14
60583;BME280;46415;47.536;19.066;2023-05-29T09:27:11;-18934.72;;;26.14;43.31
60583;BME280;46415;47.536;19.066;2023-05-29T09:30:31;-18940.00;;;26.33;43.29
60583;BME280;46415;47.536;19.066;2023-05-29T09:33:34;-18939.47;;;26.31;43.34
60583;BME280;46415;47.536;19.066;2023-05-29T09:36:38;-18927.97;;;25.88;43.46
60583;BME280;46415;47.536;19.066;2023-05-29T09:39:50;-18922.59;;;25.68;45.22
60583;BME280;46415;47.536;19.066;2023-05-29T09:43:04;-18924.75;;;25.76;45.25
60583;BME280;46415;47.536;19.066;2023-05-29T09:46:07;-18936.22;;;26.19;44.01
60583;BME280;46415;47.536;19.066;2023-05-29T09:49:14;-18944.59;;;26.51;43.19
60583;BME280;46415;47.536;19.066;2023-05-29T09:52:21;-18939.31;;;26.31;42.22
60583;BME280;46415;47.536;19.066;2023-05-29T09:55:25;-18927.84;;;25.88;43.61
60583;BME280;46415;47.536;19.066;2023-05-29T09:58:29;-18920.56;;;25.60;44.36
60583;BME280;46415;47.536;19.066;2023-05-29T10:01:35;-18917.84;;;25.50;43.90
60583;BME280;46415;47.536;19.066;2023-05-29T10:04:40;-18909.50;;;25.19;45.12
60583;BME280;46415;47.536;19.066;2023-05-29T10:07:46;-18907.88;;;25.13;46.13
60583;BME280;46415;47.536;19.066;2023-05-29T10:11:03;-18908.69;;;25.16;45.39
60583;BME280;46415;47.536;19.066;2023-05-29T10:14:17;-18914.06;;;25.36;45.99
60583;BME280;46415;47.536;19.066;2023-05-29T10:17:34;-18919.75;;;25.57;45.04
60583;BME280;46415;47.536;19.066;2023-05-29T10:20:38;-18922.72;;;25.69;44.10
60583;BME280;46415;47.536;19.066;2023-05-29T10:23:47;-18922.72;;;25.69;44.15
60583;BME280;46415;47.536;19.066;2023-05-29T10:26:51;-18921.22;;;25.63;44.38
60583;BME280;46415;47.536;19.066;2023-05-29T10:30:01;-18923.81;;;25.73;45.03
60583;BME280;46415;47.536;19.066;2023-05-29T10:36:22;-18929.06;;;25.92;44.40
60583;BME280;46415;47.536;19.066;2023-05-29T10:39:28;-18930.16;;;25.96;45.22
60583;BME280;46415;47.536;19.066;2023-05-29T10:48:53;-18933.78;;;26.10;44.74
60583;BME280;46415;47.536;19.066;2023-05-29T10:51:58;-18933.78;;;26.10;45.33
60583;BME280;46415;47.536;19.066;2023-05-29T10:55:04;-18923.00;;;25.70;45.90
60583;BME280;46415;47.536;19.066;2023-05-29T10:58:18;-18927.31;;;25.86;45.87
60583;BME280;46415;47.536;19.066;2023-05-29T11:01:22;-18925.97;;;25.81;46.13
60583;BME280;46415;47.536;19.066;2023-05-29T11:04:26;-18920.03;;;25.58;46.72
60583;BME280;46415;47.536;19.066;2023-05-29T11:07:34;-18924.59;;;25.76;46.94
60583;BME280;46415;47.536;19.066;2023-05-29T11:13:53;-18924.47;;;25.75;46.87
60583;BME280;46415;47.536;19.066;2023-05-29T11:16:57;-18925.97;;;25.81;45.89
60583;BME280;46415;47.536;19.066;2023-05-29T11:20:02;-18931.22;;;26.00;46.28
60583;BME280;46415;47.536;19.066;2023-05-29T11:23:08;-18928.94;;;25.92;46.47
60583;BME280;46415;47.536;19.066;2023-05-29T11:26:11;-18929.88;;;25.95;45.56
60583;BME280;46415;47.536;19.066;2023-05-29T11:29:14;-18934.19;;;26.12;45.92
60583;BME280;46415;47.536;19.066;2023-05-29T11:32:17;-18933.53;;;26.09;46.30
60583;BME280;46415;47.536;19.066;2023-05-29T11:35:22;-18934.31;;;26.12;47.22
60583;BME280;46415;47.536;19.066;2023-05-29T11:38:26;-18943.22;;;26.46;46.67
60583;BME280;46415;47.536;19.066;2023-05-29T11:41:29;-18934.47;;;26.13;46.31
60583;BME280;46415;47.536;19.066;2023-05-29T11:44:33;-18930.41;;;25.97;45.47
60583;BME280;46415;47.536;19.066;2023-05-29T11:47:52;-18931.50;;;26.01;45.28
60583;BME280;46415;47.536;19.066;2023-05-29T11:50:55;-18928.38;;;25.90;45.21
60583;BME280;46415;47.536;19.066;2023-05-29T11:53:58;-18932.03;;;26.04;45.18
60583;BME280;46415;47.536;19.066;2023-05-29T11:57:02;-18936.22;;;26.19;45.05
60583;BME280;46415;47.536;19.066;2023-05-29T12:00:06;-18936.06;;;26.19;45.14
60583;BME280;46415;47.536;19.066;2023-05-29T12:03:12;-18945.38;;;26.54;44.10
60583;BME280;46415;47.536;19.066;2023-05-29T12:06:15;-18946.88;;;26.59;43.88
60583;BME280;46415;47.536;19.066;2023-05-29T12:09:28;-18945.25;;;26.53;43.89
60583;BME280;46415;47.536;19.066;2023-05-29T12:12:31;-18938.66;;;26.28;44.23
60583;BME280;46415;47.536;19.066;2023-05-29T12:15:34;-18934.59;;;26.13;44.66
60583;BME280;46415;47.536;19.066;2023-05-29T12:18:37;-18930.41;;;25.97;45.13
60583;BME280;46415;47.536;19.066;2023-05-29T12:21:42;-18928.66;;;25.91;44.96
60583;BME280;46415;47.536;19.066;2023-05-29T12:24:48;-18925.97;;;25.81;44.72
60583;BME280;46415;47.536;19.066;2023-05-29T12:27:51;-18924.34;;;25.75;45.94
60583;BME280;46415;47.536;19.066;2023-05-29T12:30:59;-18922.19;;;25.67;46.01
60583;BME280;46415;47.536;19.066;2023-05-29T12:34:08;-18910.56;;;25.23;44.96
60583;BME280;46415;47.536;19.066;2023-05-29T12:37:11;-18912.88;;;25.32;46.25
60583;BME280;46415;47.536;19.066;2023-05-29T12:40:18;-18915.97;;;25.43;46.38
60583;BME280;46415;47.536;19.066;2023-05-29T12:43:22;-18920.56;;;25.60;46.19
60583;BME280;46415;47.536;19.066;2023-05-29T12:46:25;-18920.16;;;25.59;44.84
60583;BME280;46415;47.536;19.066;2023-05-29T12:49:28;-18926.91;;;25.84;44.07
60583;BME280;46415;47.536;19.066;2023-05-29T12:52:33;-18931.50;;;26.01;44.57
60583;BME280;46415;47.536;19.066;2023-05-29T12:55:37;-18930.53;;;25.98;44.52
60583;BME280;46415;47.536;19.066;2023-05-29T12:58:41;-18935.13;;;26.15;44.07
60583;BME280;46415;47.536;19.066;2023-05-29T13:01:44;-18939.72;;;26.32;42.74
60583;BME280;46415;47.536;19.066;2023-05-29T13:04:47;-18939.19;;;26.30;42.29
60583;BME280;46415;47.536;19.066;2023-05-29T13:07:50;-18944.44;;;26.50;41.67
60583;BME280;46415;47.536;19.066;2023-05-29T13:10:53;-18949.69;;;26.70;42.10
60583;BME280;46415;47.536;19.066;2023-05-29T13:13:56;-18956.72;;;26.96;40.88
60583;BME280;46415;47.536;19.066;2023-05-29T13:16:59;-18958.88;;;27.04;40.78
60583;BME280;46415;47.536;19.066;2023-05-29T13:20:02;-18960.63;;;27.11;39.61
60583;BME280;46415;47.536;19.066;2023-05-29T13:23:05;-18963.47;;;27.21;39.66
60583;BME280;46415;47.536;19.066;2023-05-29T13:26:07;-18964.81;;;27.27;39.00
60583;BME280;46415;47.536;19.066;2023-05-29T13:29:10;-18964.81;;;27.27;38.63
60583;BME280;46415;47.536;19.066;2023-05-29T13:32:13;-18973.16;;;27.58;38.64
60583;BME280;46415;47.536;19.066;2023-05-29T13:35:16;-18986.50;;;28.08;37.08
60583;BME280;46415;47.536;19.066;2023-05-29T13:38:19;-18997.66;;;28.50;38.08
60583;BME280;46415;47.536;19.066;2023-05-29T13:41:21;-19005.59;;;28.80;36.24
60583;BME280;46415;47.536;19.066;2023-05-29T13:44:24;-19003.19;;;28.71;35.44
60583;BME280;46415;47.536;19.066;2023-05-29T13:47:27;-19001.28;;;28.64;35.60
60583;BME280;46415;47.536;19.066;2023-05-29T13:50:34;-19009.25;;;28.94;35.89
60583;BME280;46415;47.536;19.066;2023-05-29T13:53:40;-19013.41;;;29.09;35.63
60583;BME280;46415;47.536;19.066;2023-05-29T13:56:43;-19003.56;;;28.72;35.71
60583;BME280;46415;47.536;19.066;2023-05-29T13:59:49;-19003.56;;;28.72;36.17
60583;BME280;46415;47.536;19.066;2023-05-29T14:02:51;-19010.72;;;28.99;34.96
60583;BME280;46415;47.536;19.066;2023-05-29T14:05:54;-19031.56;;;29.78;34.12
60583;BME280;46415;47.536;19.066;2023-05-29T14:08:58;-19036.66;;;29.97;33.14
60583;BME280;46415;47.536;19.066;2023-05-29T14:12:00;-19031.97;;;29.79;32.69
60583;BME280;46415;47.536;19.066;2023-05-29T14:15:05;-19034.25;;;29.88;34.08
60583;BME280;46415;47.536;19.066;2023-05-29T14:18:08;-19036.66;;;29.97;32.85
60583;BME280;46415;47.536;19.066;2023-05-29T14:21:14;-19045.66;;;30.31;33.36
60583;BME280;46415;47.536;19.066;2023-05-29T14:24:17;-19055.72;;;30.69;32.21
60583;BME280;46415;47.536;19.066;2023-05-29T14:27:20;-19066.75;;;31.10;31.47
60583;BME280;46415;47.536;19.066;2023-05-29T14:30:25;-19062.44;;;30.94;31.60
60583;BME280;46415;47.536;19.066;2023-05-29T14:33:27;-19068.88;;;31.18;31.14
60583;BME280;46415;47.536;19.066;2023-05-29T14:36:30;-19071.03;;;31.27;31.05
60583;BME280;46415;47.536;19.066;2023-05-29T14:39:33;-19066.19;;;31.08;32.15
60583;BME280;46415;47.536;19.066;2023-05-29T14:42:36;-19046.88;;;30.35;33.24
60583;BME280;46415;47.536;19.066;2023-05-29T14:45:38;-19040.97;;;30.13;33.80
60583;BME280;46415;47.536;19.066;2023-05-29T14:48:41;-19039.06;;;30.06;33.88
60583;BME280;46415;47.536;19.066;2023-05-29T14:51:44;-19031.97;;;29.79;35.17
60583;BME280;46415;47.536;19.066;2023-05-29T14:54:47;-19021.59;;;29.40;36.20
60583;BME280;46415;47.536;19.066;2023-05-29T14:57:50;-19005.47;;;28.79;37.20
60583;BME280;46415;47.536;19.066;2023-05-29T15:00:53;-18987.44;;;28.12;38.06
60583;BME280;46415;47.536;19.066;2023-05-29T15:03:55;-18975.84;;;27.68;40.28
60583;BME280;46415;47.536;19.066;2023-05-29T15:06:58;-18960.75;;;27.11;44.22
60583;BME280;46415;47.536;19.066;2023-05-29T15:10:08;-18995.25;;;28.41;46.92
60583;BME280;46415;47.536;19.066;2023-05-29T15:13:12;-19026.31;;;29.58;44.31
60583;BME280;46415;47.536;19.066;2023-05-29T15:16:14;-19074.91;;;31.41;41.80
60583;BME280;46415;47.536;19.066;2023-05-29T15:19:17;-19088.31;;;31.92;39.79
60583;BME280;46415;47.536;19.066;2023-05-29T15:22:20;-19046.88;;;30.35;45.34
60583;BME280;46415;47.536;19.066;2023-05-29T15:25:25;-19039.06;;;30.06;41.41
60583;BME280;46415;47.536;19.066;2023-05-29T15:28:28;-19108.44;;;32.68;37.84
60583;BME280;46415;47.536;19.066;2023-05-29T15:31:31;-19103.47;;;32.49;38.02
60583;BME280;46415;47.536;19.066;2023-05-29T15:34:34;-19059.47;;;30.83;39.60
60583;BME280;46415;47.536;19.066;2023-05-29T15:37:38;-19050.09;;;30.48;38.55
60583;BME280;46415;47.536;19.066;2023-05-29T15:40:41;-19119.13;;;33.08;34.53
60583;BME280;46415;47.536;19.066;2023-05-29T15:43:44;-19189.16;;;35.74;29.69
60583;BME280;46415;47.536;19.066;2023-05-29T15:46:46;-19223.94;;;37.06;24.29
60583;BME280;46415;47.536;19.066;2023-05-29T15:49:50;-19273.97;;;38.96;22.88
60583;BME280;46415;47.536;19.066;2023-05-29T15:52:53;-19282.72;;;39.30;22.39
60583;BME280;46415;47.536;19.066;2023-05-29T15:55:58;-19310.84;;;40.37;19.95
60583;BME280;46415;47.536;19.066;2023-05-29T15:59:01;-19308.84;;;40.29;18.66
60583;BME280;46415;47.536;19.066;2023-05-29T16:02:05;-19320.13;;;40.72;19.04
60583;BME280;46415;47.536;19.066;2023-05-29T16:05:09;-19323.69;;;40.86;18.51
60583;BME280;46415;47.536;19.066;2023-05-29T16:08:12;-19278.88;;;39.15;18.39